Terminal Aerodrome Forecast
Issued by NWS Green Bay, WI

Home | Current Version | Previous Version | Graphics & Text | Print | Product List | Glossary On
Versions: 1 2 3 4 5 6 7 8 9 10 11 12 13 14 15 16 17
000
FTUS43 KGRB 181602 AAB
TAFGRB
TAF AMD
KGRB 181602Z 1816/1912 30012G20KT P6SM SCT025 BKN035
      TEMPO 1816/1818 BKN025
     FM182100 29011KT P6SM SCT040 BKN120
     FM190000 29006KT P6SM SCT100
     FM190800 27004KT 4SM BR SKC=

USA.gov is the U.S. government's official web portal to all federal, state and local government web resources and services.